TimeMDT,TemperatureF,Dew PointF,Humidity,Sea Level PressureIn,VisibilityMPH,Wind Direction,Wind SpeedMPH,Gust SpeedMPH,PrecipitationIn,Events,Conditions,WindDirDegrees,DateUTC
12:55 AM,70.0,61.0,73,29.80,10.0,Calm,Calm,-,N/A,,Clear,0,2013-08-20 06:55:00
1:55 AM,70.0,61.0,73,29.78,10.0,Calm,Calm,-,N/A,,Clear,0,2013-08-20 07:55:00
2:55 AM,68.0,61.0,78,29.76,10.0,ENE,3.5,-,N/A,,Clear,70,2013-08-20 08:55:00
3:55 AM,64.9,60.1,84,29.76,10.0,Calm,Calm,-,N/A,,Clear,0,2013-08-20 09:55:00
4:55 AM,62.1,59.0,90,29.76,10.0,Calm,Calm,-,N/A,,Clear,0,2013-08-20 10:55:00
5:55 AM,60.1,57.0,90,29.78,10.0,NW,4.6,-,N/A,,Clear,310,2013-08-20 11:55:00
6:55 AM,61.0,57.9,90,29.78,10.0,Calm,Calm,-,N/A,,Clear,0,2013-08-20 12:55:00
7:55 AM,64.9,60.1,84,29.79,10.0,WNW,3.5,-,N/A,,Clear,290,2013-08-20 13:55:00
8:55 AM,72.0,63.0,73,29.80,10.0,Calm,Calm,-,N/A,,Clear,0,2013-08-20 14:55:00
9:55 AM,78.1,64.0,62,29.78,10.0,Calm,Calm,-,N/A,,Clear,0,2013-08-20 15:55:00
10:55 AM,84.0,64.9,53,29.78,10.0,SE,4.6,-,N/A,,Clear,130,2013-08-20 16:55:00
11:55 AM,88.0,63.0,43,29.76,10.0,SSE,8.1,-,N/A,,Clear,150,2013-08-20 17:55:00
12:55 PM,90.0,63.0,40,29.75,10.0,South,4.6,-,N/A,,Clear,180,2013-08-20 18:55:00
1:55 PM,93.9,62.1,35,29.74,10.0,SSE,3.5,-,N/A,,Clear,160,2013-08-20 19:55:00
2:55 PM,96.1,64.0,35,29.72,10.0,SSE,6.9,-,N/A,,Clear,150,2013-08-20 20:55:00
3:55 PM,93.0,64.9,39,29.72,10.0,SSE,5.8,-,N/A,,Clear,160,2013-08-20 21:55:00
4:55 PM,89.1,68.0,50,29.74,10.0,NW,6.9,-,N/A,,Clear,320,2013-08-20 22:55:00
5:55 PM,86.0,68.0,55,29.72,10.0,North,12.7,-,N/A,,Clear,10,2013-08-20 23:55:00
6:55 PM,87.1,64.0,46,29.75,10.0,North,10.4,-,N/A,,Clear,350,2013-08-21 00:55:00
7:55 PM,82.9,64.9,54,29.78,10.0,West,6.9,-,N/A,,Partly Cloudy,280,2013-08-21 01:55:00
8:02 PM,82.4,64.4,54,29.83,10.0,WNW,6.9,-,N/A,Thunderstorm,Thunderstorm,300,2013-08-21 02:02:00
8:38 PM,84.2,64.4,51,29.79,10.0,North,12.7,-,0.00,,Clear,10,2013-08-21 02:38:00
8:55 PM,81.0,64.0,56,29.74,10.0,NNW,9.2,-,0.00,,Clear,340,2013-08-21 02:55:00
9:55 PM,81.0,63.0,54,29.78,10.0,Calm,Calm,-,N/A,,Clear,0,2013-08-21 03:55:00
10:55 PM,77.0,64.9,66,29.77,10.0,NW,5.8,-,N/A,,Clear,320,2013-08-21 04:55:00
11:55 PM,75.9,64.0,67,29.78,10.0,Calm,Calm,-,N/A,,Clear,0,2013-08-21 05:55:00